sensor_id;sensor_type;location;lat;lon;timestamp;P1;durP1;ratioP1;P2;durP2;ratioP2
24301;SDS011;12421;49.732;20.078;2022-11-22T00:02:41;48.60;;;28.50;;
24301;SDS011;12421;49.732;20.078;2022-11-22T00:12:45;53.00;;;31.20;;
24301;SDS011;12421;49.732;20.078;2022-11-22T00:22:50;54.80;;;31.80;;
24301;SDS011;12421;49.732;20.078;2022-11-22T00:32:54;53.30;;;30.30;;
24301;SDS011;12421;49.732;20.078;2022-11-22T00:42:59;52.80;;;28.60;;
24301;SDS011;12421;49.732;20.078;2022-11-22T00:53:05;42.00;;;24.10;;
24301;SDS011;12421;49.732;20.078;2022-11-22T01:03:13;39.20;;;24.50;;
24301;SDS011;12421;49.732;20.078;2022-11-22T01:13:19;42.60;;;24.90;;
24301;SDS011;12421;49.732;20.078;2022-11-22T01:23:23;31.70;;;20.10;;
24301;SDS011;12421;49.732;20.078;2022-11-22T01:33:27;30.00;;;18.50;;
24301;SDS011;12421;49.732;20.078;2022-11-22T01:43:31;23.40;;;14.60;;
24301;SDS011;12421;49.732;20.078;2022-11-22T01:53:36;24.20;;;15.40;;
24301;SDS011;12421;49.732;20.078;2022-11-22T02:03:43;27.40;;;15.70;;
24301;SDS011;12421;49.732;20.078;2022-11-22T02:13:52;22.40;;;14.50;;
24301;SDS011;12421;49.732;20.078;2022-11-22T02:24:02;24.70;;;15.50;;
24301;SDS011;12421;49.732;20.078;2022-11-22T02:34:14;25.00;;;14.10;;
24301;SDS011;12421;49.732;20.078;2022-11-22T02:44:18;25.00;;;15.60;;
24301;SDS011;12421;49.732;20.078;2022-11-22T02:54:23;25.50;;;15.50;;
24301;SDS011;12421;49.732;20.078;2022-11-22T03:04:27;28.40;;;16.80;;
24301;SDS011;12421;49.732;20.078;2022-11-22T03:14:30;24.70;;;14.30;;
24301;SDS011;12421;49.732;20.078;2022-11-22T03:24:34;20.50;;;13.10;;
24301;SDS011;12421;49.732;20.078;2022-11-22T03:34:38;19.50;;;13.20;;
24301;SDS011;12421;49.732;20.078;2022-11-22T03:44:41;16.40;;;11.30;;
24301;SDS011;12421;49.732;20.078;2022-11-22T03:54:45;18.20;;;11.00;;
24301;SDS011;12421;49.732;20.078;2022-11-22T04:04:49;22.00;;;13.80;;
24301;SDS011;12421;49.732;20.078;2022-11-22T04:14:53;20.40;;;12.50;;
24301;SDS011;12421;49.732;20.078;2022-11-22T04:25:09;18.00;;;12.30;;
24301;SDS011;12421;49.732;20.078;2022-11-22T04:35:16;22.00;;;13.50;;
24301;SDS011;12421;49.732;20.078;2022-11-22T04:45:22;26.30;;;15.00;;
24301;SDS011;12421;49.732;20.078;2022-11-22T04:55:26;27.80;;;15.90;;
24301;SDS011;12421;49.732;20.078;2022-11-22T05:05:29;22.10;;;13.10;;
24301;SDS011;12421;49.732;20.078;2022-11-22T05:15:36;26.10;;;13.70;;
24301;SDS011;12421;49.732;20.078;2022-11-22T05:25:40;28.10;;;13.90;;
24301;SDS011;12421;49.732;20.078;2022-11-22T05:35:44;28.50;;;15.20;;
24301;SDS011;12421;49.732;20.078;2022-11-22T05:45:48;28.90;;;15.10;;
24301;SDS011;12421;49.732;20.078;2022-11-22T05:55:52;32.10;;;16.70;;
24301;SDS011;12421;49.732;20.078;2022-11-22T06:05:56;32.90;;;18.30;;
24301;SDS011;12421;49.732;20.078;2022-11-22T06:16:00;35.00;;;18.40;;
24301;SDS011;12421;49.732;20.078;2022-11-22T06:26:05;37.20;;;19.90;;
24301;SDS011;12421;49.732;20.078;2022-11-22T06:36:12;46.40;;;22.00;;
24301;SDS011;12421;49.732;20.078;2022-11-22T06:46:19;44.70;;;26.10;;
24301;SDS011;12421;49.732;20.078;2022-11-22T06:56:26;53.20;;;27.60;;
24301;SDS011;12421;49.732;20.078;2022-11-22T07:06:34;35.60;;;20.10;;
24301;SDS011;12421;49.732;20.078;2022-11-22T07:16:42;54.20;;;30.60;;
24301;SDS011;12421;49.732;20.078;2022-11-22T07:26:46;61.70;;;31.60;;
24301;SDS011;12421;49.732;20.078;2022-11-22T07:36:50;45.20;;;25.70;;
24301;SDS011;12421;49.732;20.078;2022-11-22T07:47:01;49.40;;;26.60;;
24301;SDS011;12421;49.732;20.078;2022-11-22T07:57:05;43.30;;;24.70;;
24301;SDS011;12421;49.732;20.078;2022-11-22T08:07:09;37.70;;;22.40;;
24301;SDS011;12421;49.732;20.078;2022-11-22T08:17:13;35.70;;;21.90;;
24301;SDS011;12421;49.732;20.078;2022-11-22T08:27:17;31.80;;;20.60;;
24301;SDS011;12421;49.732;20.078;2022-11-22T08:37:21;33.70;;;20.50;;
24301;SDS011;12421;49.732;20.078;2022-11-22T08:47:25;30.20;;;19.00;;
24301;SDS011;12421;49.732;20.078;2022-11-22T08:57:29;29.20;;;18.20;;
24301;SDS011;12421;49.732;20.078;2022-11-22T09:07:33;37.10;;;23.20;;
24301;SDS011;12421;49.732;20.078;2022-11-22T09:18:00;38.30;;;23.70;;
24301;SDS011;12421;49.732;20.078;2022-11-22T09:28:05;35.30;;;23.40;;
24301;SDS011;12421;49.732;20.078;2022-11-22T09:38:09;30.80;;;19.40;;
24301;SDS011;12421;49.732;20.078;2022-11-22T09:48:18;25.60;;;16.20;;
24301;SDS011;12421;49.732;20.078;2022-11-22T09:58:42;32.10;;;18.90;;
24301;SDS011;12421;49.732;20.078;2022-11-22T10:19:12;24.20;;;14.60;;
24301;SDS011;12421;49.732;20.078;2022-11-22T11:00:04;17.30;;;11.20;;
24301;SDS011;12421;49.732;20.078;2022-11-22T11:10:30;10.80;;;7.10;;
24301;SDS011;12421;49.732;20.078;2022-11-22T11:20:41;10.70;;;6.50;;
24301;SDS011;12421;49.732;20.078;2022-11-22T11:30:50;10.80;;;6.90;;
24301;SDS011;12421;49.732;20.078;2022-11-22T11:51:45;13.70;;;8.10;;
24301;SDS011;12421;49.732;20.078;2022-11-22T12:01:56;10.80;;;7.20;;
24301;SDS011;12421;49.732;20.078;2022-11-22T12:12:37;11.60;;;8.20;;
24301;SDS011;12421;49.732;20.078;2022-11-22T12:33:07;13.60;;;8.10;;
24301;SDS011;12421;49.732;20.078;2022-11-22T12:43:25;14.70;;;8.90;;
24301;SDS011;12421;49.732;20.078;2022-11-22T12:53:34;10.60;;;6.20;;
24301;SDS011;12421;49.732;20.078;2022-11-22T13:03:47;13.40;;;7.60;;
24301;SDS011;12421;49.732;20.078;2022-11-22T13:55:30;7.40;;;4.80;;
24301;SDS011;12421;49.732;20.078;2022-11-22T14:05:48;65.30;;;29.00;;
24301;SDS011;12421;49.732;20.078;2022-11-22T14:36:16;15.90;;;11.60;;
24301;SDS011;12421;49.732;20.078;2022-11-22T14:46:22;17.30;;;12.20;;
24301;SDS011;12421;49.732;20.078;2022-11-22T14:56:48;14.80;;;9.10;;
24301;SDS011;12421;49.732;20.078;2022-11-22T15:07:07;19.70;;;13.60;;
24301;SDS011;12421;49.732;20.078;2022-11-22T15:17:44;19.40;;;12.60;;
24301;SDS011;12421;49.732;20.078;2022-11-22T15:38:43;21.90;;;14.50;;
24301;SDS011;12421;49.732;20.078;2022-11-22T15:49:08;37.40;;;19.20;;
24301;SDS011;12421;49.732;20.078;2022-11-22T15:59:37;38.80;;;21.60;;
24301;SDS011;12421;49.732;20.078;2022-11-22T16:09:43;43.70;;;25.30;;
24301;SDS011;12421;49.732;20.078;2022-11-22T16:20:41;41.30;;;23.90;;
24301;SDS011;12421;49.732;20.078;2022-11-22T16:30:41;59.90;;;31.50;;
24301;SDS011;12421;49.732;20.078;2022-11-22T16:40:46;60.20;;;30.60;;
24301;SDS011;12421;49.732;20.078;2022-11-22T16:50:55;45.60;;;26.80;;
24301;SDS011;12421;49.732;20.078;2022-11-22T17:01:02;61.10;;;32.60;;
24301;SDS011;12421;49.732;20.078;2022-11-22T17:11:08;271.90;;;95.80;;
24301;SDS011;12421;49.732;20.078;2022-11-22T17:31:35;100.70;;;50.30;;
24301;SDS011;12421;49.732;20.078;2022-11-22T17:41:40;96.30;;;50.50;;
24301;SDS011;12421;49.732;20.078;2022-11-22T17:51:46;86.00;;;45.40;;
24301;SDS011;12421;49.732;20.078;2022-11-22T18:01:50;85.10;;;42.10;;
24301;SDS011;12421;49.732;20.078;2022-11-22T18:11:55;78.30;;;43.30;;
24301;SDS011;12421;49.732;20.078;2022-11-22T18:22:00;92.00;;;47.10;;
24301;SDS011;12421;49.732;20.078;2022-11-22T18:32:06;93.10;;;50.20;;
24301;SDS011;12421;49.732;20.078;2022-11-22T18:42:13;85.90;;;48.40;;
24301;SDS011;12421;49.732;20.078;2022-11-22T18:52:19;101.70;;;52.10;;
24301;SDS011;12421;49.732;20.078;2022-11-22T19:02:26;76.00;;;44.70;;
24301;SDS011;12421;49.732;20.078;2022-11-22T19:12:35;78.40;;;45.90;;
24301;SDS011;12421;49.732;20.078;2022-11-22T19:22:43;81.80;;;47.60;;
24301;SDS011;12421;49.732;20.078;2022-11-22T19:32:49;116.90;;;56.20;;
24301;SDS011;12421;49.732;20.078;2022-11-22T19:42:54;86.50;;;48.70;;
24301;SDS011;12421;49.732;20.078;2022-11-22T19:53:01;102.50;;;50.50;;
24301;SDS011;12421;49.732;20.078;2022-11-22T20:03:10;116.50;;;57.80;;
24301;SDS011;12421;49.732;20.078;2022-11-22T20:13:18;182.30;;;87.90;;
24301;SDS011;12421;49.732;20.078;2022-11-22T20:23:26;255.90;;;107.00;;
24301;SDS011;12421;49.732;20.078;2022-11-22T20:33:34;148.30;;;67.20;;
24301;SDS011;12421;49.732;20.078;2022-11-22T20:43:40;141.00;;;72.00;;
24301;SDS011;12421;49.732;20.078;2022-11-22T20:53:46;142.70;;;68.60;;
24301;SDS011;12421;49.732;20.078;2022-11-22T21:03:57;179.30;;;89.20;;
24301;SDS011;12421;49.732;20.078;2022-11-22T21:14:02;135.80;;;70.70;;
24301;SDS011;12421;49.732;20.078;2022-11-22T21:24:09;147.90;;;73.00;;
24301;SDS011;12421;49.732;20.078;2022-11-22T21:34:14;134.20;;;66.20;;
24301;SDS011;12421;49.732;20.078;2022-11-22T21:44:18;148.90;;;67.60;;
24301;SDS011;12421;49.732;20.078;2022-11-22T21:54:21;138.10;;;67.80;;
24301;SDS011;12421;49.732;20.078;2022-11-22T22:04:25;155.30;;;67.80;;
24301;SDS011;12421;49.732;20.078;2022-11-22T22:14:29;127.90;;;59.30;;
24301;SDS011;12421;49.732;20.078;2022-11-22T22:24:32;134.40;;;61.60;;
24301;SDS011;12421;49.732;20.078;2022-11-22T22:34:36;139.30;;;63.30;;
24301;SDS011;12421;49.732;20.078;2022-11-22T22:44:40;131.60;;;62.80;;
24301;SDS011;12421;49.732;20.078;2022-11-22T22:54:43;127.10;;;63.50;;
24301;SDS011;12421;49.732;20.078;2022-11-22T23:04:47;125.10;;;56.60;;
24301;SDS011;12421;49.732;20.078;2022-11-22T23:14:55;116.80;;;53.60;;
24301;SDS011;12421;49.732;20.078;2022-11-22T23:24:59;88.20;;;42.30;;
24301;SDS011;12421;49.732;20.078;2022-11-22T23:35:03;114.00;;;51.80;;
24301;SDS011;12421;49.732;20.078;2022-11-22T23:45:09;108.40;;;49.80;;
24301;SDS011;12421;49.732;20.078;2022-11-22T23:55:13;109.50;;;52.40;;
